createdAt,value
2018-01-26T00:03:04.246Z,7.87
2018-01-26T00:08:06.786Z,9.70
2018-01-26T00:13:09.512Z,7.37
2018-01-26T00:18:12.099Z,5.47
2018-01-26T00:23:14.724Z,3.53
2018-01-26T00:28:18.034Z,2.70
2018-01-26T00:33:20.738Z,7.67
2018-01-26T00:38:23.285Z,4.40
2018-01-26T00:43:25.815Z,3.23
2018-01-26T00:48:28.514Z,4.20
2018-01-26T00:53:31.047Z,4.57
2018-01-26T00:58:34.046Z,8.00
2018-01-26T01:03:36.630Z,3.67
2018-01-26T01:08:40.228Z,3.37
2018-01-26T01:13:43.306Z,3.60
2018-01-26T01:18:46.616Z,3.67
2018-01-26T01:23:49.298Z,6.03
2018-01-26T01:28:51.840Z,8.33
2018-01-26T01:33:54.846Z,2.50
2018-01-26T01:38:58.345Z,3.80
2018-01-26T01:44:00.918Z,4.37
2018-01-26T01:49:15.974Z,2.00
2018-01-26T01:54:18.680Z,2.90
2018-01-26T01:59:21.210Z,3.27
2018-01-26T02:04:24.518Z,3.50
2018-01-26T02:09:27.038Z,3.10
2018-01-26T02:14:29.899Z,2.13
2018-01-26T02:19:32.445Z,3.43
2018-01-26T02:24:35.087Z,2.00
2018-01-26T02:29:37.684Z,3.40
2018-01-26T02:34:41.482Z,2.30
2018-01-26T02:39:43.999Z,1.50
2018-01-26T02:44:47.337Z,3.00
2018-01-26T02:49:49.907Z,1.43
2018-01-26T02:54:53.216Z,3.30
2018-01-26T02:59:56.343Z,4.47
2018-01-26T03:04:58.911Z,3.63
2018-01-26T03:10:01.723Z,2.63
2018-01-26T03:15:04.245Z,2.83
2018-01-26T03:20:07.000Z,4.93
2018-01-26T03:25:09.836Z,2.40
2018-01-26T03:30:12.892Z,3.13
2018-01-26T03:35:15.600Z,3.37
2018-01-26T03:40:18.167Z,4.53
2018-01-26T03:45:20.757Z,3.60
2018-01-26T03:50:23.256Z,4.30
2018-01-26T03:55:25.974Z,4.10
2018-01-26T04:00:28.886Z,3.77
2018-01-26T04:05:31.519Z,3.97
2018-01-26T04:10:34.751Z,1.83
2018-01-26T04:15:37.285Z,1.30
2018-01-26T04:20:40.696Z,3.23
2018-01-26T04:25:44.484Z,1.60
2018-01-26T04:30:47.642Z,3.33
2018-01-26T04:35:50.419Z,2.83
2018-01-26T04:40:52.972Z,6.10
2018-01-26T04:45:56.106Z,3.23
2018-01-26T04:50:58.647Z,3.77
2018-01-26T04:56:01.167Z,3.73
2018-01-26T05:01:04.220Z,10.97
2018-01-26T05:06:06.891Z,3.07
2018-01-26T05:11:09.394Z,6.00
2018-01-26T05:16:11.909Z,4.00
2018-01-26T05:21:14.434Z,6.43
2018-01-26T05:26:17.290Z,5.10
2018-01-26T05:31:19.852Z,4.73
2018-01-26T05:36:22.665Z,7.47
2018-01-26T05:41:25.165Z,4.30
2018-01-26T05:46:29.188Z,13.30
2018-01-26T05:51:31.711Z,6.33
2018-01-26T05:56:34.368Z,7.93
2018-01-26T06:01:37.677Z,9.73
2018-01-26T06:06:40.992Z,5.23
2018-01-26T06:11:43.497Z,4.13
2018-01-26T06:16:46.532Z,4.60
2018-01-26T06:21:49.095Z,11.00
2018-01-26T06:26:52.513Z,10.60
2018-01-26T06:31:55.043Z,5.70
2018-01-26T06:36:57.653Z,7.40
2018-01-26T06:42:00.180Z,8.67
2018-01-26T06:47:02.747Z,6.53
2018-01-26T06:52:05.371Z,3.83
2018-01-26T06:57:07.894Z,7.17
2018-01-26T07:02:10.408Z,5.30
2018-01-26T07:07:13.166Z,1.90
2018-01-26T07:12:15.897Z,6.80
2018-01-26T07:17:18.431Z,3.97
2018-01-26T07:22:21.691Z,3.10
2018-01-26T07:27:24.251Z,4.23
2018-01-26T07:32:26.883Z,6.63
2018-01-26T07:37:29.458Z,5.50
2018-01-26T07:42:32.282Z,13.33
2018-01-26T07:47:34.998Z,5.70
2018-01-26T07:52:37.599Z,5.60
2018-01-26T07:57:41.508Z,5.50
2018-01-26T08:02:44.452Z,3.17
2018-01-26T08:07:47.095Z,8.50
2018-01-26T08:12:49.845Z,4.43
2018-01-26T08:17:52.887Z,3.80
2018-01-26T08:22:55.429Z,5.73
2018-01-26T08:27:58.451Z,12.97
2018-01-26T08:33:01.801Z,5.00
2018-01-26T08:38:04.495Z,11.70
2018-01-26T08:43:07.037Z,7.13
2018-01-26T08:48:09.870Z,9.03
2018-01-26T08:53:12.441Z,4.73
2018-01-26T08:58:14.990Z,5.20
2018-01-26T09:03:17.850Z,4.63
2018-01-26T09:08:21.250Z,8.33
2018-01-26T09:13:24.858Z,4.10
2018-01-26T09:18:27.823Z,11.07
2018-01-26T09:23:30.403Z,5.40
2018-01-26T09:28:34.199Z,8.73
2018-01-26T09:33:37.605Z,4.23
2018-01-26T09:38:40.723Z,7.63
2018-01-26T09:43:43.724Z,6.93
2018-01-26T09:48:47.470Z,6.27
2018-01-26T09:53:50.052Z,5.73
2018-01-26T09:58:52.761Z,6.73
2018-01-26T10:03:56.193Z,5.40
2018-01-26T10:09:03.050Z,6.00
2018-01-26T10:14:05.692Z,6.37
2018-01-26T10:19:08.266Z,4.77
2018-01-26T10:24:10.806Z,4.83
2018-01-26T10:29:13.430Z,6.17
2018-01-26T10:34:15.995Z,7.77
2018-01-26T10:39:19.156Z,7.13
2018-01-26T10:44:21.690Z,6.50
2018-01-26T10:49:24.963Z,30.20
2018-01-26T10:54:27.760Z,106.23
2018-01-26T10:59:30.977Z,78.37
2018-01-26T11:04:35.872Z,78.80
2018-01-26T11:09:38.823Z,83.83
2018-01-26T11:14:41.629Z,90.23
2018-01-26T11:19:44.368Z,76.57
2018-01-26T11:24:47.178Z,89.43
2018-01-26T11:29:50.364Z,90.70
2018-01-26T11:34:52.942Z,83.93
2018-01-26T11:39:55.545Z,73.80
2018-01-26T11:44:58.289Z,61.73
2018-01-26T11:50:01.752Z,59.73
2018-01-26T11:55:04.511Z,53.80
2018-01-26T12:00:07.409Z,47.30
2018-01-26T12:05:11.095Z,49.80
2018-01-26T12:10:13.915Z,39.27
2018-01-26T12:15:16.563Z,37.63
2018-01-26T12:20:19.239Z,35.23
2018-01-26T12:25:22.609Z,38.57
2018-01-26T12:30:25.421Z,34.10
2018-01-26T12:35:28.138Z,29.30
2018-01-26T12:40:31.584Z,31.30
2018-01-26T12:45:34.663Z,33.63
2018-01-26T12:50:37.248Z,31.40
2018-01-26T12:55:41.487Z,29.63
2018-01-26T13:00:44.185Z,26.67
2018-01-26T13:05:47.742Z,32.63
2018-01-26T13:10:50.989Z,30.63
2018-01-26T13:15:53.657Z,20.03
2018-01-26T13:20:56.282Z,17.63
2018-01-26T13:25:58.863Z,20.33
2018-01-26T13:31:01.600Z,24.40
2018-01-26T13:36:04.398Z,18.90
2018-01-26T13:41:06.990Z,16.10
2018-01-26T13:46:10.412Z,15.30
2018-01-26T13:51:13.111Z,13.63
2018-01-26T13:56:15.674Z,18.77
2018-01-26T14:01:18.499Z,9.07
2018-01-26T14:06:21.571Z,19.30
2018-01-26T14:11:24.415Z,15.47
2018-01-26T14:16:27.800Z,10.87
2018-01-26T14:21:30.610Z,13.30
2018-01-26T14:26:33.154Z,7.50
2018-01-26T14:31:35.942Z,10.63
2018-01-26T14:36:38.582Z,9.57
2018-01-26T14:41:41.161Z,11.47
2018-01-26T14:46:43.868Z,8.23
2018-01-26T14:51:46.728Z,10.17
2018-01-26T14:56:49.488Z,6.67
2018-01-26T15:01:52.097Z,5.90
2018-01-26T15:06:54.872Z,9.17
2018-01-26T15:11:58.350Z,7.30
2018-01-26T15:17:01.017Z,6.60
2018-01-26T15:22:03.845Z,5.20
2018-01-26T15:27:06.640Z,4.80
2018-01-26T15:32:10.137Z,16.03
2018-01-26T15:37:13.042Z,13.00
2018-01-26T15:42:16.661Z,21.00
2018-01-26T15:47:20.082Z,22.37
2018-01-26T15:52:22.865Z,25.17
2018-01-26T15:57:25.825Z,10.30
2018-01-26T16:02:28.506Z,12.90
2018-01-26T16:07:31.142Z,15.60
2018-01-26T16:12:33.946Z,28.33
2018-01-26T16:17:36.790Z,10.10
2018-01-26T16:22:39.376Z,10.27
2018-01-26T16:27:41.929Z,17.97
2018-01-26T16:32:44.488Z,6.53
2018-01-26T16:37:47.049Z,8.83
2018-01-26T16:42:50.587Z,12.33
2018-01-26T16:47:53.329Z,8.63
2018-01-26T16:52:57.776Z,9.03
2018-01-26T16:58:01.585Z,7.60
2018-01-26T17:03:05.567Z,5.00
2018-01-26T17:08:08.127Z,7.30
2018-01-26T17:13:11.586Z,10.00
2018-01-26T17:18:14.299Z,8.03
2018-01-26T17:23:17.333Z,6.73
2018-01-26T17:28:20.235Z,6.73
2018-01-26T17:33:22.785Z,9.60
2018-01-26T17:38:25.986Z,10.00
2018-01-26T17:43:28.687Z,6.93
2018-01-26T17:48:31.979Z,6.07
2018-01-26T17:53:34.556Z,4.70
2018-01-26T17:58:37.277Z,4.03
2018-01-26T18:03:40.495Z,6.03
2018-01-26T18:08:43.277Z,6.10
2018-01-26T18:13:46.593Z,8.30
2018-01-26T18:18:49.619Z,4.70
2018-01-26T18:23:52.270Z,3.67
2018-01-26T18:28:54.953Z,7.80
2018-01-26T18:33:57.472Z,5.83
2018-01-26T18:39:00.985Z,4.90
2018-01-26T18:44:04.332Z,7.53
2018-01-26T20:23:57.819Z,4.67
2018-01-26T20:29:01.302Z,11.53
2018-01-26T20:34:03.878Z,8.00
2018-01-26T20:39:06.464Z,9.00
2018-01-26T20:44:09.173Z,12.60
2018-01-26T20:49:12.081Z,7.93
2018-01-26T20:54:15.468Z,8.30
2018-01-26T20:59:19.216Z,7.60
2018-01-26T21:04:21.963Z,5.70
2018-01-26T21:09:24.924Z,8.57
2018-01-26T21:14:27.523Z,11.00
2018-01-26T21:19:30.687Z,8.40
2018-01-26T21:24:34.692Z,9.00
2018-01-26T21:29:37.413Z,7.50
2018-01-26T21:34:39.992Z,8.33
2018-01-26T21:39:43.972Z,7.33
2018-01-26T21:44:47.343Z,7.93
2018-01-26T21:49:50.711Z,9.20
2018-01-26T21:54:54.390Z,6.83
2018-01-26T21:59:57.166Z,7.90
2018-01-26T22:05:05.525Z,8.40
2018-01-26T22:10:09.266Z,7.33
2018-01-26T22:15:11.875Z,8.23
2018-01-26T22:20:14.455Z,11.57
2018-01-26T22:25:17.097Z,6.83
2018-01-26T22:30:19.801Z,12.20
2018-01-26T22:35:22.567Z,7.73
2018-01-26T22:40:25.108Z,9.43
2018-01-26T22:45:28.060Z,6.90
2018-01-26T22:50:30.682Z,7.70
2018-01-26T22:55:34.036Z,6.00
2018-01-26T23:00:36.565Z,7.73
2018-01-26T23:05:39.178Z,8.07
2018-01-26T23:10:41.772Z,7.80
2018-01-26T23:15:44.504Z,5.50
2018-01-26T23:20:47.059Z,5.80
2018-01-26T23:25:49.702Z,4.90
2018-01-26T23:30:53.043Z,6.73
2018-01-26T23:35:55.620Z,6.50
2018-01-26T23:40:58.269Z,4.47
2018-01-26T23:46:01.357Z,5.77
2018-01-26T23:51:03.967Z,7.47
2018-01-26T23:56:06.797Z,6.00
